createdAt,value
2018-06-19T00:00:53.796Z,99.90
2018-06-19T00:03:22.415Z,99.90
2018-06-19T00:05:51.022Z,99.90
2018-06-19T00:08:19.729Z,99.90
2018-06-19T00:10:48.436Z,99.90
2018-06-19T00:13:17.104Z,99.90
2018-06-19T00:15:45.864Z,99.90
2018-06-19T00:18:19.285Z,99.90
2018-06-19T00:20:48.022Z,99.90
2018-06-19T00:23:16.704Z,99.90
2018-06-19T00:25:45.465Z,99.90
2018-06-19T00:28:14.176Z,99.90
2018-06-19T00:30:42.725Z,99.90
2018-06-19T00:33:11.355Z,99.90
2018-06-19T00:35:39.968Z,99.90
2018-06-19T00:38:08.720Z,99.90
2018-06-19T00:40:37.274Z,99.90
2018-06-19T00:43:06.132Z,99.90
2018-06-19T00:45:34.851Z,99.90
2018-06-19T00:48:03.928Z,99.90
2018-06-19T00:50:32.557Z,99.90
2018-06-19T00:53:01.223Z,99.90
2018-06-19T00:55:29.722Z,99.90
2018-06-19T00:57:58.366Z,99.90
2018-06-19T01:00:27.000Z,99.90
2018-06-19T01:02:55.703Z,99.90
2018-06-19T01:05:24.382Z,99.90
2018-06-19T01:07:52.915Z,99.90
2018-06-19T01:10:21.731Z,99.90
2018-06-19T01:12:50.357Z,99.90
2018-06-19T01:15:18.979Z,99.90
2018-06-19T01:17:47.542Z,99.90
2018-06-19T01:20:16.279Z,99.90
2018-06-19T01:22:45.046Z,99.90
2018-06-19T01:25:13.835Z,99.90
2018-06-19T01:27:42.595Z,99.90
2018-06-19T01:30:11.348Z,99.90
2018-06-19T01:32:39.367Z,99.90
2018-06-19T01:35:08.022Z,99.90
2018-06-19T01:40:05.116Z,99.90
2018-06-19T01:42:33.647Z,99.90
2018-06-19T01:45:02.401Z,99.90
2018-06-19T01:47:30.219Z,99.90
2018-06-19T01:52:27.393Z,99.90
2018-06-19T01:54:56.178Z,99.90
2018-06-19T01:59:53.207Z,99.90
2018-06-19T02:02:21.865Z,99.90
2018-06-19T02:04:50.585Z,99.90
2018-06-19T02:07:19.455Z,99.90
2018-06-19T02:09:48.497Z,99.90
2018-06-19T02:12:16.465Z,99.90
2018-06-19T02:14:45.619Z,99.90
2018-06-19T02:17:14.425Z,99.90
2018-06-19T02:19:43.061Z,99.90
2018-06-19T02:22:12.271Z,99.90
2018-06-19T02:27:09.419Z,99.90
2018-06-19T02:29:38.367Z,99.90
2018-06-19T02:32:07.154Z,99.90
2018-06-19T02:34:36.112Z,99.90
2018-06-19T02:37:04.838Z,99.90
2018-06-19T02:39:33.924Z,99.90
2018-06-19T02:42:02.749Z,99.90
2018-06-19T02:44:31.541Z,99.90
2018-06-19T02:47:00.348Z,99.90
2018-06-19T02:49:29.132Z,99.90
2018-06-19T02:51:57.999Z,99.90
2018-06-19T02:54:26.598Z,99.90
2018-06-19T02:56:55.392Z,99.90
2018-06-19T02:59:24.517Z,99.90
2018-06-19T03:01:53.113Z,99.90
2018-06-19T03:04:21.953Z,99.90
2018-06-19T03:06:50.766Z,99.90
2018-06-19T03:09:19.355Z,99.90
2018-06-19T03:11:48.419Z,99.90
2018-06-19T03:14:17.373Z,99.90
2018-06-19T03:16:46.438Z,99.90
2018-06-19T03:19:15.455Z,99.90
2018-06-19T03:24:13.485Z,99.90
2018-06-19T03:26:42.534Z,99.90
2018-06-19T03:29:11.275Z,99.90
2018-06-19T03:31:39.918Z,99.90
2018-06-19T03:34:08.637Z,99.90
2018-06-19T03:36:37.891Z,99.90
2018-06-19T03:39:09.269Z,99.90
2018-06-19T03:41:38.316Z,99.90
2018-06-19T03:44:07.439Z,99.90
2018-06-19T03:46:36.273Z,99.90
2018-06-19T03:49:05.341Z,99.90
2018-06-19T03:51:34.251Z,99.90
2018-06-19T03:54:03.237Z,99.90
2018-06-19T03:56:32.340Z,99.90
2018-06-19T03:59:01.256Z,99.90
2018-06-19T04:01:30.213Z,99.90
2018-06-19T04:03:59.032Z,99.90
2018-06-19T04:06:31.295Z,99.90
2018-06-19T04:09:02.684Z,99.90
2018-06-19T04:11:31.575Z,99.90
2018-06-19T04:14:00.503Z,99.90
2018-06-19T04:18:57.532Z,99.90
2018-06-19T04:21:26.245Z,99.90
2018-06-19T04:23:55.125Z,99.90
2018-06-19T04:26:24.097Z,99.90
2018-06-19T04:28:52.691Z,99.90
2018-06-19T04:31:21.433Z,99.90
2018-06-19T04:33:50.234Z,99.90
2018-06-19T04:36:18.943Z,99.90
2018-06-19T04:38:47.705Z,99.90
2018-06-19T04:41:16.649Z,99.90
2018-06-19T04:43:45.321Z,99.90
2018-06-19T04:46:14.115Z,99.90
2018-06-19T04:48:43.102Z,99.90
2018-06-19T04:51:12.129Z,99.90
2018-06-19T04:53:41.068Z,99.90
2018-06-19T04:56:09.767Z,99.90
2018-06-19T04:58:38.463Z,99.90
2018-06-19T05:01:07.271Z,99.90
2018-06-19T05:03:35.831Z,99.90
2018-06-19T05:06:04.517Z,99.90
2018-06-19T05:08:33.414Z,99.90
2018-06-19T05:11:02.167Z,99.90
2018-06-19T05:15:59.101Z,99.90
2018-06-19T05:18:28.244Z,99.90
2018-06-19T05:20:57.071Z,99.90
2018-06-19T05:23:25.818Z,99.90
2018-06-19T05:25:54.751Z,99.90
2018-06-19T05:28:23.575Z,99.90
2018-06-19T05:30:52.233Z,99.90
2018-06-19T05:33:21.125Z,99.90
2018-06-19T05:35:49.823Z,99.90
2018-06-19T05:38:18.552Z,99.90
2018-06-19T05:40:47.121Z,99.90
2018-06-19T05:43:15.700Z,99.90
2018-06-19T05:45:44.809Z,99.90
2018-06-19T05:50:41.913Z,99.90
2018-06-19T05:53:10.461Z,99.90
2018-06-19T05:55:39.255Z,99.90
2018-06-19T06:00:36.429Z,99.90
2018-06-19T06:03:05.063Z,99.90
2018-06-19T06:05:33.998Z,99.90
2018-06-19T06:08:02.579Z,99.90
2018-06-19T06:10:31.369Z,99.90
2018-06-19T06:13:00.047Z,99.90
2018-06-19T06:15:28.982Z,99.90
2018-06-19T06:17:57.676Z,99.90
2018-06-19T06:20:26.502Z,99.90
2018-06-19T06:22:55.239Z,99.90
2018-06-19T06:25:24.023Z,99.90
2018-06-19T06:27:52.603Z,99.90
2018-06-19T06:30:21.654Z,99.90
2018-06-19T06:32:50.280Z,99.90
2018-06-19T06:37:47.856Z,99.90
2018-06-19T06:42:45.072Z,99.90
2018-06-19T06:45:13.994Z,99.90
2018-06-19T06:47:42.693Z,99.90
2018-06-19T06:50:12.008Z,99.90
2018-06-19T06:52:40.575Z,99.90
2018-06-19T06:55:09.420Z,99.90
2018-06-19T06:57:38.214Z,99.90
2018-06-19T07:00:07.258Z,99.90
2018-06-19T07:02:35.967Z,99.90
2018-06-19T07:07:33.091Z,99.90
2018-06-19T07:10:01.728Z,99.90
2018-06-19T07:12:30.472Z,99.90
2018-06-19T07:14:59.099Z,99.90
2018-06-19T07:22:24.855Z,99.90
2018-06-19T07:24:53.749Z,99.90
2018-06-19T07:27:22.350Z,99.90
2018-06-19T07:29:51.016Z,99.90
2018-06-19T07:32:19.572Z,99.90
2018-06-19T07:34:48.399Z,99.90
2018-06-19T07:37:17.082Z,99.90
2018-06-19T07:42:14.804Z,99.90
2018-06-19T07:44:43.457Z,99.90
2018-06-19T07:49:41.182Z,99.90
2018-06-19T07:52:09.684Z,99.90
2018-06-19T07:54:38.366Z,99.90
2018-06-19T07:57:07.104Z,99.90
2018-06-19T07:59:35.657Z,99.90
2018-06-19T08:02:04.267Z,99.90
2018-06-19T08:07:06.146Z,99.90
2018-06-19T08:12:03.973Z,99.90
2018-06-19T08:14:32.986Z,99.90
2018-06-19T08:17:02.039Z,99.90
2018-06-19T08:19:30.820Z,99.90
2018-06-19T08:21:59.376Z,99.90
2018-06-19T08:24:28.456Z,99.90
2018-06-19T08:26:57.099Z,99.90
2018-06-19T08:29:25.904Z,99.90
2018-06-19T08:31:54.507Z,99.90
2018-06-19T08:34:23.986Z,99.90
2018-06-19T08:36:53.184Z,99.90
2018-06-19T08:39:22.040Z,99.90
2018-06-19T08:44:19.611Z,99.90
2018-06-19T08:46:48.240Z,99.90
2018-06-19T08:49:17.143Z,99.90
2018-06-19T08:51:45.919Z,99.90
2018-06-19T08:54:14.419Z,99.90
2018-06-19T08:56:43.368Z,99.90
2018-06-19T09:01:40.497Z,99.90
2018-06-19T09:04:09.379Z,99.80
2018-06-19T09:06:38.297Z,99.10
2018-06-19T09:09:09.434Z,98.40
2018-06-19T09:11:38.180Z,98.80
2018-06-19T09:14:07.193Z,99.80
2018-06-19T09:16:36.280Z,99.90
2018-06-19T09:19:06.076Z,99.90
2018-06-19T09:21:34.792Z,99.90
2018-06-19T09:24:03.802Z,99.90
2018-06-19T09:26:32.816Z,99.90
2018-06-19T09:29:01.775Z,99.90
2018-06-19T09:31:31.075Z,99.90
2018-06-19T09:33:59.994Z,99.90
2018-06-19T09:36:28.586Z,99.90
2018-06-19T09:38:58.328Z,99.90
2018-06-19T09:43:56.059Z,99.90
2018-06-19T09:46:24.901Z,99.90
2018-06-19T09:48:54.034Z,99.90
2018-06-19T09:51:22.949Z,99.90
2018-06-19T09:53:51.748Z,99.90
2018-06-19T09:56:20.712Z,99.90
2018-06-19T09:58:49.762Z,99.90
2018-06-19T10:03:47.079Z,99.90
2018-06-19T10:06:16.297Z,99.90
2018-06-19T10:08:45.295Z,99.90
2018-06-19T10:11:14.260Z,99.50
2018-06-19T10:13:43.162Z,98.40
2018-06-19T10:16:12.049Z,97.00
2018-06-19T10:18:40.986Z,96.90
2018-06-19T10:21:09.776Z,97.30
2018-06-19T10:23:38.849Z,97.70
2018-06-19T10:26:07.704Z,97.40
2018-06-19T10:28:36.699Z,97.50
2018-06-19T10:33:34.529Z,98.20
2018-06-19T10:36:04.157Z,99.50
2018-06-19T10:38:33.064Z,99.40
2018-06-19T10:43:30.350Z,98.20
2018-06-19T10:45:59.178Z,97.60
2018-06-19T10:48:27.929Z,98.00
2018-06-19T10:50:56.576Z,98.30
2018-06-19T10:53:25.516Z,98.70
2018-06-19T10:55:54.362Z,98.90
2018-06-19T10:58:23.116Z,99.10
2018-06-19T11:00:51.799Z,98.80
2018-06-19T11:03:20.496Z,97.20
2018-06-19T11:05:49.324Z,96.40
2018-06-19T11:08:18.204Z,96.00
2018-06-19T11:10:46.860Z,95.30
2018-06-19T11:13:15.541Z,94.60
2018-06-19T11:15:44.196Z,94.10
2018-06-19T11:20:41.570Z,94.90
2018-06-19T11:23:10.412Z,95.40
2018-06-19T11:25:39.497Z,96.20
2018-06-19T11:28:08.062Z,97.60
2018-06-19T11:30:36.698Z,97.20
2018-06-19T11:33:05.435Z,95.60
2018-06-19T11:38:02.828Z,93.60
2018-06-19T11:40:31.567Z,93.40
2018-06-19T11:43:00.458Z,93.50
2018-06-19T11:45:29.113Z,93.60
2018-06-19T11:47:57.867Z,94.50
2018-06-19T11:52:55.104Z,94.20
2018-06-19T11:55:24.175Z,93.10
2018-06-19T11:57:52.781Z,91.80
2018-06-19T12:00:21.718Z,91.60
2018-06-19T12:02:50.462Z,91.60
2018-06-19T12:05:19.360Z,91.90
2018-06-19T12:07:48.550Z,92.00
2018-06-19T12:10:17.339Z,92.40
2018-06-19T12:12:46.026Z,91.90
2018-06-19T12:15:14.924Z,91.70
2018-06-19T12:17:43.839Z,91.70
2018-06-19T12:22:41.373Z,92.00
2018-06-19T12:25:10.999Z,91.80
2018-06-19T12:27:39.817Z,92.10
2018-06-19T12:35:06.974Z,92.40
2018-06-19T12:37:35.601Z,92.30
2018-06-19T12:42:33.312Z,92.60
2018-06-19T12:45:02.320Z,92.00
2018-06-19T12:47:32.303Z,92.30
2018-06-19T12:50:40.445Z,92.90
2018-06-19T12:53:20.742Z,92.50
2018-06-19T12:56:01.883Z,92.40
2018-06-19T12:58:31.341Z,93.50
2018-06-19T13:03:39.700Z,94.20
2018-06-19T13:06:19.586Z,94.60
2018-06-19T13:08:48.615Z,94.90
2018-06-19T13:11:17.499Z,95.00
2018-06-19T13:13:57.644Z,94.80
2018-06-19T13:16:37.702Z,94.70
2018-06-19T13:19:17.819Z,95.00
2018-06-19T13:21:46.637Z,95.00
2018-06-19T13:24:15.676Z,94.60
2018-06-19T13:29:53.903Z,94.20
2018-06-19T13:34:51.296Z,92.40
2018-06-19T13:37:19.927Z,92.50
2018-06-19T13:40:57.567Z,92.80
2018-06-19T13:43:37.505Z,92.40
2018-06-19T13:46:06.395Z,91.60
2018-06-19T13:48:35.203Z,91.10
2018-06-19T13:53:32.390Z,90.20
2018-06-19T13:56:12.277Z,89.20
2018-06-19T13:58:41.875Z,88.20
2018-06-19T14:01:10.497Z,87.60
2018-06-19T14:03:39.185Z,87.10
2018-06-19T14:06:07.968Z,86.20
2018-06-19T14:08:48.994Z,84.70
2018-06-19T14:11:31.459Z,81.00
2018-06-19T14:14:02.237Z,80.00
2018-06-19T14:16:30.947Z,80.10
2018-06-19T14:24:27.639Z,79.60
2018-06-19T14:26:56.618Z,79.40
2018-06-19T14:29:29.607Z,78.50
2018-06-19T14:31:58.306Z,78.60
2018-06-19T14:34:30.979Z,78.00
2018-06-19T14:37:05.496Z,78.40
2018-06-19T14:39:38.349Z,78.90
2018-06-19T14:42:10.719Z,78.40
2018-06-19T14:44:41.723Z,78.10
2018-06-19T14:47:11.954Z,78.40
2018-06-19T14:49:43.145Z,78.80
2018-06-19T14:52:16.108Z,79.90
2018-06-19T14:54:47.388Z,80.20
2018-06-19T14:57:20.719Z,80.80
2018-06-19T14:59:53.211Z,80.80
2018-06-19T15:02:27.043Z,79.60
2018-06-19T15:04:55.820Z,78.50
2018-06-19T15:07:24.536Z,77.00
2018-06-19T15:09:53.642Z,74.00
2018-06-19T15:12:23.305Z,74.20
2018-06-19T15:14:51.990Z,72.90
2018-06-19T15:17:20.688Z,73.30
2018-06-19T15:19:49.526Z,73.20
2018-06-19T15:22:18.610Z,73.70
2018-06-19T15:24:47.531Z,74.20
2018-06-19T15:27:16.358Z,74.50
2018-06-19T15:29:45.671Z,74.90
2018-06-19T15:34:42.710Z,75.50
2018-06-19T15:37:11.867Z,76.10
2018-06-19T15:39:40.777Z,76.40
2018-06-19T15:42:10.911Z,76.40
2018-06-19T15:44:39.599Z,76.70
2018-06-19T15:47:08.324Z,76.60
2018-06-19T15:49:37.078Z,76.90
2018-06-19T15:52:05.653Z,77.70
2018-06-19T15:54:34.362Z,78.60
2018-06-19T15:57:04.559Z,79.70
2018-06-19T15:59:33.318Z,78.50
2018-06-19T16:02:01.915Z,78.80
2018-06-19T16:04:30.789Z,78.60
2018-06-19T16:06:59.547Z,78.60
2018-06-19T16:09:28.358Z,79.20
2018-06-19T16:11:57.119Z,79.90
2018-06-19T16:14:25.884Z,80.50
2018-06-19T16:16:54.711Z,81.10
2018-06-19T16:19:23.503Z,81.30
2018-06-19T16:21:52.262Z,81.20
2018-06-19T16:24:21.210Z,81.10
2018-06-19T16:26:49.956Z,81.20
2018-06-19T16:29:18.576Z,81.50
2018-06-19T16:31:47.421Z,81.00
2018-06-19T16:34:16.305Z,81.20
2018-06-19T16:36:45.729Z,81.50
2018-06-19T16:39:14.777Z,81.90
2018-06-19T16:41:43.561Z,81.80
2018-06-19T16:46:40.817Z,82.30
2018-06-19T16:49:10.165Z,82.50
2018-06-19T16:51:39.348Z,82.80
2018-06-19T16:56:36.695Z,81.50
2018-06-19T16:59:06.425Z,81.10
2018-06-19T17:01:35.929Z,80.90
2018-06-19T17:04:06.970Z,80.80
2018-06-19T17:06:36.553Z,80.50
2018-06-19T17:09:07.797Z,81.00
2018-06-19T17:11:37.342Z,81.60
2018-06-19T17:14:08.237Z,82.40
2018-06-19T17:16:37.287Z,82.10
2018-06-19T17:19:06.068Z,82.30
2018-06-19T17:21:37.500Z,82.60
2018-06-19T17:24:06.278Z,83.10
2018-06-19T17:26:35.393Z,83.20
2018-06-19T17:29:04.830Z,83.10
2018-06-19T17:31:34.251Z,83.30
2018-06-19T17:34:04.768Z,82.90
2018-06-19T17:36:35.154Z,82.70
2018-06-19T17:39:08.187Z,82.80
2018-06-19T17:41:38.746Z,82.60
2018-06-19T17:44:08.614Z,82.50
2018-06-19T17:46:38.256Z,82.80
2018-06-19T17:49:07.059Z,83.00
2018-06-19T17:51:36.216Z,83.30
2018-06-19T17:54:05.438Z,83.50
2018-06-19T17:56:34.502Z,83.80
2018-06-19T18:01:33.620Z,84.90
2018-06-19T18:04:03.160Z,85.10
2018-06-19T18:06:32.301Z,86.10
2018-06-19T18:09:01.868Z,85.90
2018-06-19T18:11:31.175Z,86.70
2018-06-19T18:14:00.940Z,87.70
2018-06-19T18:16:30.928Z,88.50
2018-06-19T18:19:00.149Z,89.20
2018-06-19T18:21:30.771Z,90.00
2018-06-19T18:23:59.843Z,90.20
2018-06-19T18:26:30.467Z,90.60
2018-06-19T18:29:00.060Z,91.00
2018-06-19T18:31:29.811Z,91.30
2018-06-19T18:33:58.941Z,91.50
2018-06-19T18:38:58.826Z,92.20
2018-06-19T18:41:28.515Z,92.60
2018-06-19T18:49:46.168Z,94.10
2018-06-19T18:52:18.878Z,94.60
2018-06-19T18:54:50.315Z,94.90
2018-06-19T18:57:19.392Z,95.50
2018-06-19T18:59:49.001Z,96.20
2018-06-19T19:02:21.298Z,96.70
2018-06-19T19:04:53.344Z,97.30
2018-06-19T19:07:22.624Z,98.20
2018-06-19T19:09:56.697Z,98.60
2018-06-19T19:18:11.620Z,99.90
2018-06-19T19:20:45.565Z,99.90
2018-06-19T19:23:17.856Z,99.90
2018-06-19T19:31:26.726Z,99.90
2018-06-19T19:33:56.164Z,99.90
2018-06-19T19:36:34.348Z,99.90
2018-06-19T19:39:09.441Z,99.90
2018-06-19T19:41:39.060Z,99.90
2018-06-19T19:44:08.274Z,99.90
2018-06-19T19:46:42.644Z,99.90
2018-06-19T19:49:15.404Z,99.90
2018-06-19T19:51:44.586Z,99.90
2018-06-19T19:54:14.031Z,99.90
2018-06-19T19:57:50.032Z,99.90
2018-06-19T20:00:25.375Z,99.90
2018-06-19T20:02:55.212Z,99.90
2018-06-19T20:05:24.300Z,99.90
2018-06-19T20:07:53.832Z,99.90
2018-06-19T20:10:24.271Z,99.90
2018-06-19T20:15:46.175Z,99.90
2018-06-19T20:18:16.355Z,99.90
2018-06-19T20:20:46.016Z,99.90
2018-06-19T20:23:14.860Z,99.90
2018-06-19T20:25:45.103Z,99.90
2018-06-19T20:28:14.651Z,99.90
2018-06-19T20:30:43.293Z,99.90
2018-06-19T20:33:12.780Z,99.90
2018-06-19T20:35:42.510Z,99.90
2018-06-19T20:38:11.619Z,99.90
2018-06-19T20:40:40.658Z,99.90
2018-06-19T20:43:10.000Z,99.90
2018-06-19T20:45:38.858Z,99.90
2018-06-19T20:48:07.709Z,99.90
2018-06-19T20:50:37.160Z,99.90
2018-06-19T20:53:07.064Z,99.90
2018-06-19T20:55:36.071Z,99.90
2018-06-19T20:58:04.966Z,99.90
2018-06-19T21:00:33.578Z,99.90
2018-06-19T21:03:04.432Z,99.90
2018-06-19T21:05:33.298Z,99.90
2018-06-19T21:08:01.955Z,99.90
2018-06-19T21:10:30.516Z,99.90
2018-06-19T21:12:59.066Z,99.90
2018-06-19T21:15:28.121Z,99.90
2018-06-19T21:17:57.238Z,99.90
2018-06-19T21:20:26.053Z,99.90
2018-06-19T21:22:54.872Z,99.90
2018-06-19T21:25:23.859Z,99.90
2018-06-19T21:27:52.579Z,99.90
2018-06-19T21:30:21.472Z,99.90
2018-06-19T21:32:50.250Z,99.90
2018-06-19T21:35:18.896Z,99.90
2018-06-19T21:37:51.366Z,99.90
2018-06-19T21:40:20.054Z,99.90
2018-06-19T21:42:48.649Z,99.90
2018-06-19T21:45:17.618Z,99.90
2018-06-19T21:47:46.653Z,99.90
2018-06-19T21:50:15.365Z,99.90
2018-06-19T21:52:43.992Z,99.90
2018-06-19T21:55:13.686Z,99.90
2018-06-19T21:57:42.283Z,99.90
2018-06-19T22:00:10.977Z,99.90
2018-06-19T22:02:39.731Z,99.90
2018-06-19T22:05:08.443Z,99.90
2018-06-19T22:07:37.231Z,99.90
2018-06-19T22:10:06.150Z,99.90
2018-06-19T22:12:34.965Z,99.90
2018-06-19T22:15:03.824Z,99.90
2018-06-19T22:17:32.526Z,99.90
2018-06-19T22:20:01.297Z,99.90
2018-06-19T22:22:29.860Z,99.90
2018-06-19T22:24:58.418Z,99.90
2018-06-19T22:27:27.364Z,99.90
2018-06-19T22:29:56.240Z,99.90
2018-06-19T22:32:24.866Z,99.90
2018-06-19T22:34:53.750Z,99.90
2018-06-19T22:37:22.465Z,99.90
2018-06-19T22:39:51.632Z,99.90
2018-06-19T22:42:20.300Z,99.90
2018-06-19T22:44:49.118Z,99.90
2018-06-19T22:47:17.672Z,99.90
2018-06-19T22:49:46.218Z,99.90
2018-06-19T22:52:15.082Z,99.90
2018-06-19T22:54:43.958Z,99.90
2018-06-19T22:57:12.624Z,99.90
2018-06-19T22:59:41.470Z,99.90
2018-06-19T23:02:10.188Z,99.90
2018-06-19T23:04:38.896Z,99.90
2018-06-19T23:07:07.656Z,99.90
2018-06-19T23:09:36.462Z,99.90
2018-06-19T23:12:05.220Z,99.90
2018-06-19T23:14:34.058Z,99.90
2018-06-19T23:17:02.799Z,99.90
2018-06-19T23:19:31.568Z,99.90
2018-06-19T23:22:00.213Z,99.90
2018-06-19T23:24:29.051Z,99.90
2018-06-19T23:29:25.734Z,99.90
2018-06-19T23:31:54.689Z,99.90
2018-06-19T23:34:23.354Z,99.90
2018-06-19T23:36:52.128Z,99.90
2018-06-19T23:39:21.117Z,99.90
2018-06-19T23:41:49.664Z,99.90
2018-06-19T23:44:18.595Z,99.90
2018-06-19T23:46:47.390Z,99.90
2018-06-19T23:49:16.355Z,99.90
2018-06-19T23:54:13.309Z,99.90
2018-06-19T23:56:42.142Z,99.90
2018-06-19T23:59:11.048Z,99.90
